sensor_id;sensor_type;location;lat;lon;timestamp;pressure;altitude;pressure_sealevel;temperature;humidity
45441;BME280;31189;38.790;-77.084;2022-12-18T00:00:07;100925.26;;;8.78;34.20
45441;BME280;31189;38.790;-77.084;2022-12-18T00:02:35;100928.02;;;9.30;34.10
45441;BME280;31189;38.790;-77.084;2022-12-18T00:05:03;100925.13;;;9.63;34.29
45441;BME280;31189;38.790;-77.084;2022-12-18T00:07:31;100919.07;;;9.41;34.21
45441;BME280;31189;38.790;-77.084;2022-12-18T00:09:59;100916.79;;;8.81;34.84
45441;BME280;31189;38.790;-77.084;2022-12-18T00:12:26;100916.86;;;8.93;35.09
45441;BME280;31189;38.790;-77.084;2022-12-18T00:14:54;100917.46;;;8.85;35.01
45441;BME280;31189;38.790;-77.084;2022-12-18T00:17:22;100910.66;;;9.96;34.35
45441;BME280;31189;38.790;-77.084;2022-12-18T00:19:50;100916.49;;;9.81;34.42
45441;BME280;31189;38.790;-77.084;2022-12-18T00:22:18;100916.87;;;8.61;35.36
45441;BME280;31189;38.790;-77.084;2022-12-18T00:24:46;100922.68;;;9.71;34.20
45441;BME280;31189;38.790;-77.084;2022-12-18T00:27:15;100929.84;;;9.54;34.46
45441;BME280;31189;38.790;-77.084;2022-12-18T00:29:43;100932.19;;;9.50;34.73
45441;BME280;31189;38.790;-77.084;2022-12-18T00:32:11;100930.95;;;8.99;35.16
45441;BME280;31189;38.790;-77.084;2022-12-18T00:34:38;100921.47;;;8.83;36.00
45441;BME280;31189;38.790;-77.084;2022-12-18T00:37:06;100923.48;;;8.43;36.34
45441;BME280;31189;38.790;-77.084;2022-12-18T00:39:34;100914.03;;;7.59;36.08
45441;BME280;31189;38.790;-77.084;2022-12-18T00:42:03;100913.64;;;8.60;35.08
45441;BME280;31189;38.790;-77.084;2022-12-18T00:44:31;100918.93;;;8.66;34.44
45441;BME280;31189;38.790;-77.084;2022-12-18T00:46:59;100925.46;;;9.03;34.45
45441;BME280;31189;38.790;-77.084;2022-12-18T00:49:27;100927.21;;;8.96;33.71
45441;BME280;31189;38.790;-77.084;2022-12-18T00:51:55;100935.66;;;9.49;33.40
45441;BME280;31189;38.790;-77.084;2022-12-18T00:54:23;100943.44;;;9.89;32.60
45441;BME280;31189;38.790;-77.084;2022-12-18T00:56:51;100946.71;;;9.90;33.02
45441;BME280;31189;38.790;-77.084;2022-12-18T00:59:19;100940.59;;;9.39;33.10
45441;BME280;31189;38.790;-77.084;2022-12-18T01:01:47;100945.43;;;9.50;32.10
45441;BME280;31189;38.790;-77.084;2022-12-18T01:04:16;100953.75;;;9.90;32.08
45441;BME280;31189;38.790;-77.084;2022-12-18T01:06:44;100957.24;;;9.32;32.18
45441;BME280;31189;38.790;-77.084;2022-12-18T01:09:12;100961.49;;;8.98;32.21
45441;BME280;31189;38.790;-77.084;2022-12-18T01:11:40;100974.49;;;10.00;31.29
45441;BME280;31189;38.790;-77.084;2022-12-18T01:14:09;100979.85;;;10.00;31.84
45441;BME280;31189;38.790;-77.084;2022-12-18T01:16:37;100986.72;;;10.25;30.82
45441;BME280;31189;38.790;-77.084;2022-12-18T01:19:04;100988.84;;;8.81;30.44
45441;BME280;31189;38.790;-77.084;2022-12-18T01:21:32;100986.69;;;10.43;30.34
45441;BME280;31189;38.790;-77.084;2022-12-18T01:24:01;100986.01;;;10.24;30.78
45441;BME280;31189;38.790;-77.084;2022-12-18T01:26:29;100988.28;;;10.16;30.91
45441;BME280;31189;38.790;-77.084;2022-12-18T01:28:57;100987.53;;;10.61;30.31
45441;BME280;31189;38.790;-77.084;2022-12-18T01:31:27;100982.13;;;9.71;30.24
45441;BME280;31189;38.790;-77.084;2022-12-18T01:33:56;100976.06;;;9.78;30.93
45441;BME280;31189;38.790;-77.084;2022-12-18T01:36:27;100975.39;;;9.88;30.51
45441;BME280;31189;38.790;-77.084;2022-12-18T01:38:55;100975.37;;;10.41;30.35
45441;BME280;31189;38.790;-77.084;2022-12-18T01:41:24;100977.32;;;9.79;29.82
45441;BME280;31189;38.790;-77.084;2022-12-18T01:43:53;100977.74;;;10.23;30.25
45441;BME280;31189;38.790;-77.084;2022-12-18T01:46:23;100985.53;;;9.90;31.23
45441;BME280;31189;38.790;-77.084;2022-12-18T01:48:53;100982.52;;;9.78;31.41
45441;BME280;31189;38.790;-77.084;2022-12-18T01:51:24;100983.18;;;10.15;30.75
45441;BME280;31189;38.790;-77.084;2022-12-18T01:53:53;100977.78;;;10.10;30.63
45441;BME280;31189;38.790;-77.084;2022-12-18T01:56:21;100968.96;;;9.84;30.66
45441;BME280;31189;38.790;-77.084;2022-12-18T01:58:56;100968.55;;;9.82;31.03
45441;BME280;31189;38.790;-77.084;2022-12-18T02:01:26;100967.84;;;10.06;30.43
45441;BME280;31189;38.790;-77.084;2022-12-18T02:03:56;100960.36;;;9.84;30.70
45441;BME280;31189;38.790;-77.084;2022-12-18T02:06:42;100960.20;;;9.90;30.84
45441;BME280;31189;38.790;-77.084;2022-12-18T02:09:14;100964.96;;;10.18;30.66
45441;BME280;31189;38.790;-77.084;2022-12-18T02:11:49;100964.88;;;9.94;31.48
45441;BME280;31189;38.790;-77.084;2022-12-18T02:14:27;100974.18;;;9.91;31.75
45441;BME280;31189;38.790;-77.084;2022-12-18T02:17:02;100977.18;;;9.75;31.76
45441;BME280;31189;38.790;-77.084;2022-12-18T02:19:50;100980.90;;;9.38;32.04
45441;BME280;31189;38.790;-77.084;2022-12-18T02:22:29;100982.56;;;10.54;31.89
45441;BME280;31189;38.790;-77.084;2022-12-18T02:25:17;100988.40;;;9.68;32.08
45441;BME280;31189;38.790;-77.084;2022-12-18T02:27:49;100989.35;;;9.93;32.65
45441;BME280;31189;38.790;-77.084;2022-12-18T02:30:19;100988.51;;;9.59;32.42
45441;BME280;31189;38.790;-77.084;2022-12-18T02:32:50;100987.66;;;9.92;32.03
45441;BME280;31189;38.790;-77.084;2022-12-18T02:35:22;100993.23;;;9.79;32.78
45441;BME280;31189;38.790;-77.084;2022-12-18T02:37:56;100998.00;;;8.93;33.04
45441;BME280;31189;38.790;-77.084;2022-12-18T02:40:27;100999.78;;;8.41;33.76
45441;BME280;31189;38.790;-77.084;2022-12-18T02:43:02;100999.31;;;9.45;34.06
45441;BME280;31189;38.790;-77.084;2022-12-18T02:45:30;100997.43;;;10.13;34.02
45441;BME280;31189;38.790;-77.084;2022-12-18T02:47:58;100992.25;;;10.05;34.15
45441;BME280;31189;38.790;-77.084;2022-12-18T02:50:33;100989.05;;;9.68;34.09
45441;BME280;31189;38.790;-77.084;2022-12-18T02:53:10;100994.36;;;9.25;34.04
45441;BME280;31189;38.790;-77.084;2022-12-18T02:55:49;100989.71;;;9.40;33.06
45441;BME280;31189;38.790;-77.084;2022-12-18T02:58:26;100995.07;;;9.54;33.53
45441;BME280;31189;38.790;-77.084;2022-12-18T03:01:00;100996.50;;;9.75;34.13
45441;BME280;31189;38.790;-77.084;2022-12-18T03:03:33;100995.32;;;9.72;34.37
45441;BME280;31189;38.790;-77.084;2022-12-18T03:06:07;100997.83;;;9.88;34.35
45441;BME280;31189;38.790;-77.084;2022-12-18T03:08:39;100997.80;;;9.50;34.82
45441;BME280;31189;38.790;-77.084;2022-12-18T03:11:10;100998.88;;;9.33;35.09
45441;BME280;31189;38.790;-77.084;2022-12-18T03:13:42;101002.73;;;9.47;35.47
45441;BME280;31189;38.790;-77.084;2022-12-18T03:16:14;100997.60;;;9.61;35.57
45441;BME280;31189;38.790;-77.084;2022-12-18T03:18:47;100995.96;;;9.96;34.98
45441;BME280;31189;38.790;-77.084;2022-12-18T03:21:17;100995.82;;;9.01;35.18
45441;BME280;31189;38.790;-77.084;2022-12-18T03:23:49;100990.42;;;9.70;35.24
45441;BME280;31189;38.790;-77.084;2022-12-18T03:26:21;100986.03;;;9.19;36.80
45441;BME280;31189;38.790;-77.084;2022-12-18T03:28:53;100990.89;;;10.05;35.52
45441;BME280;31189;38.790;-77.084;2022-12-18T03:31:24;100996.53;;;9.62;35.13
45441;BME280;31189;38.790;-77.084;2022-12-18T03:33:55;100998.46;;;9.24;34.67
45441;BME280;31189;38.790;-77.084;2022-12-18T03:36:25;101002.03;;;9.64;34.89
45441;BME280;31189;38.790;-77.084;2022-12-18T03:38:54;101007.46;;;8.91;35.75
45441;BME280;31189;38.790;-77.084;2022-12-18T03:41:29;101012.25;;;8.38;35.44
45441;BME280;31189;38.790;-77.084;2022-12-18T03:44:06;101009.83;;;8.68;35.79
45441;BME280;31189;38.790;-77.084;2022-12-18T03:46:42;101015.71;;;8.74;36.24
45441;BME280;31189;38.790;-77.084;2022-12-18T03:49:17;101020.83;;;9.06;36.89
45441;BME280;31189;38.790;-77.084;2022-12-18T03:51:50;101031.29;;;8.88;36.87
45441;BME280;31189;38.790;-77.084;2022-12-18T03:54:20;101035.19;;;9.41;37.80
45441;BME280;31189;38.790;-77.084;2022-12-18T03:56:55;101039.36;;;9.49;37.05
45441;BME280;31189;38.790;-77.084;2022-12-18T03:59:25;101043.00;;;9.23;37.78
45441;BME280;31189;38.790;-77.084;2022-12-18T04:01:56;101053.04;;;8.66;39.36
45441;BME280;31189;38.790;-77.084;2022-12-18T04:04:25;101053.39;;;8.33;38.86
45441;BME280;31189;38.790;-77.084;2022-12-18T04:06:55;101057.11;;;8.36;39.40
45441;BME280;31189;38.790;-77.084;2022-12-18T04:09:24;101055.79;;;8.39;39.95
45441;BME280;31189;38.790;-77.084;2022-12-18T04:11:52;101056.02;;;8.66;39.37
45441;BME280;31189;38.790;-77.084;2022-12-18T04:14:20;101050.36;;;8.04;40.18
45441;BME280;31189;38.790;-77.084;2022-12-18T04:16:48;101046.69;;;8.69;40.41
45441;BME280;31189;38.790;-77.084;2022-12-18T04:19:16;101047.70;;;8.53;40.85
45441;BME280;31189;38.790;-77.084;2022-12-18T04:21:43;101046.43;;;8.47;40.89
45441;BME280;31189;38.790;-77.084;2022-12-18T04:24:11;101055.21;;;8.84;39.27
45441;BME280;31189;38.790;-77.084;2022-12-18T04:26:39;101052.31;;;9.00;39.32
45441;BME280;31189;38.790;-77.084;2022-12-18T04:29:06;101044.64;;;7.34;41.50
45441;BME280;31189;38.790;-77.084;2022-12-18T04:31:34;101043.62;;;9.07;39.00
45441;BME280;31189;38.790;-77.084;2022-12-18T04:34:03;101040.00;;;8.82;38.30
45441;BME280;31189;38.790;-77.084;2022-12-18T04:36:31;101032.46;;;8.14;38.98
45441;BME280;31189;38.790;-77.084;2022-12-18T04:38:59;101023.00;;;8.77;38.52
45441;BME280;31189;38.790;-77.084;2022-12-18T04:41:27;101014.65;;;8.63;39.32
45441;BME280;31189;38.790;-77.084;2022-12-18T04:43:55;101010.63;;;7.16;40.81
45441;BME280;31189;38.790;-77.084;2022-12-18T04:46:23;101007.60;;;7.99;40.23
45441;BME280;31189;38.790;-77.084;2022-12-18T04:48:51;101005.68;;;8.66;40.20
45441;BME280;31189;38.790;-77.084;2022-12-18T04:51:20;101003.51;;;8.78;39.96
45441;BME280;31189;38.790;-77.084;2022-12-18T04:53:48;100999.89;;;9.28;38.85
45441;BME280;31189;38.790;-77.084;2022-12-18T04:56:16;100994.97;;;8.47;39.55
45441;BME280;31189;38.790;-77.084;2022-12-18T04:58:45;100996.61;;;8.80;39.66
45441;BME280;31189;38.790;-77.084;2022-12-18T05:01:14;100992.51;;;8.88;39.13
45441;BME280;31189;38.790;-77.084;2022-12-18T05:03:42;100995.55;;;8.58;38.59
45441;BME280;31189;38.790;-77.084;2022-12-18T05:06:11;100996.11;;;9.25;37.93
45441;BME280;31189;38.790;-77.084;2022-12-18T05:08:39;100997.32;;;8.97;36.96
45441;BME280;31189;38.790;-77.084;2022-12-18T05:11:08;101004.52;;;7.62;37.74
45441;BME280;31189;38.790;-77.084;2022-12-18T05:13:37;101011.54;;;6.03;43.68
45441;BME280;31189;38.790;-77.084;2022-12-18T05:16:06;101016.79;;;6.81;44.11
45441;BME280;31189;38.790;-77.084;2022-12-18T05:18:34;101021.77;;;8.28;41.34
45441;BME280;31189;38.790;-77.084;2022-12-18T05:21:04;101026.68;;;8.79;40.58
45441;BME280;31189;38.790;-77.084;2022-12-18T05:23:32;101027.90;;;8.25;40.96
45441;BME280;31189;38.790;-77.084;2022-12-18T05:26:03;101021.65;;;7.24;40.66
45441;BME280;31189;38.790;-77.084;2022-12-18T05:28:32;101021.86;;;7.00;42.69
45441;BME280;31189;38.790;-77.084;2022-12-18T05:31:03;101029.77;;;7.93;41.75
45441;BME280;31189;38.790;-77.084;2022-12-18T05:33:33;101031.90;;;7.48;39.89
45441;BME280;31189;38.790;-77.084;2022-12-18T05:36:03;101032.64;;;8.42;40.33
45441;BME280;31189;38.790;-77.084;2022-12-18T05:38:33;101034.70;;;8.72;40.36
45441;BME280;31189;38.790;-77.084;2022-12-18T05:41:02;101041.00;;;8.84;41.86
45441;BME280;31189;38.790;-77.084;2022-12-18T05:43:30;101045.09;;;8.60;41.98
45441;BME280;31189;38.790;-77.084;2022-12-18T05:46:04;101041.01;;;8.07;42.17
45441;BME280;31189;38.790;-77.084;2022-12-18T05:48:32;101049.37;;;8.70;41.93
45441;BME280;31189;38.790;-77.084;2022-12-18T05:51:06;101048.14;;;8.53;41.15
45441;BME280;31189;38.790;-77.084;2022-12-18T05:53:39;101053.51;;;8.61;41.25
45441;BME280;31189;38.790;-77.084;2022-12-18T05:56:15;101053.45;;;7.82;40.62
45441;BME280;31189;38.790;-77.084;2022-12-18T05:58:43;101060.00;;;8.21;39.82
45441;BME280;31189;38.790;-77.084;2022-12-18T06:01:12;101065.07;;;7.71;40.68
45441;BME280;31189;38.790;-77.084;2022-12-18T06:03:40;101067.54;;;8.42;39.83
45441;BME280;31189;38.790;-77.084;2022-12-18T06:06:17;101067.69;;;7.57;40.68
45441;BME280;31189;38.790;-77.084;2022-12-18T06:08:46;101064.92;;;8.85;39.66
45441;BME280;31189;38.790;-77.084;2022-12-18T06:11:18;101060.67;;;8.23;40.35
45441;BME280;31189;38.790;-77.084;2022-12-18T06:13:46;101063.74;;;8.07;40.61
45441;BME280;31189;38.790;-77.084;2022-12-18T06:16:14;101060.48;;;9.01;39.87
45441;BME280;31189;38.790;-77.084;2022-12-18T06:18:42;101062.85;;;8.93;39.38
45441;BME280;31189;38.790;-77.084;2022-12-18T06:21:10;101061.17;;;8.22;40.64
45441;BME280;31189;38.790;-77.084;2022-12-18T06:23:38;101060.64;;;8.45;40.32
45441;BME280;31189;38.790;-77.084;2022-12-18T06:26:07;101063.48;;;8.34;39.89
45441;BME280;31189;38.790;-77.084;2022-12-18T06:28:36;101065.31;;;7.76;41.11
45441;BME280;31189;38.790;-77.084;2022-12-18T06:31:05;101053.66;;;7.82;40.75
45441;BME280;31189;38.790;-77.084;2022-12-18T06:33:34;101048.20;;;8.13;40.96
45441;BME280;31189;38.790;-77.084;2022-12-18T06:36:09;101057.72;;;7.72;41.60
45441;BME280;31189;38.790;-77.084;2022-12-18T06:38:40;101063.54;;;7.83;41.56
45441;BME280;31189;38.790;-77.084;2022-12-18T06:41:09;101068.83;;;8.31;42.16
45441;BME280;31189;38.790;-77.084;2022-12-18T06:43:37;101076.14;;;7.99;42.44
45441;BME280;31189;38.790;-77.084;2022-12-18T06:46:06;101080.79;;;8.35;41.36
45441;BME280;31189;38.790;-77.084;2022-12-18T06:48:33;101075.97;;;7.95;42.04
45441;BME280;31189;38.790;-77.084;2022-12-18T06:51:03;101076.59;;;8.21;42.11
45441;BME280;31189;38.790;-77.084;2022-12-18T06:53:32;101079.59;;;7.81;42.20
45441;BME280;31189;38.790;-77.084;2022-12-18T06:56:02;101080.90;;;8.47;41.61
45441;BME280;31189;38.790;-77.084;2022-12-18T06:58:29;101076.60;;;7.84;41.72
45441;BME280;31189;38.790;-77.084;2022-12-18T07:01:00;101073.00;;;7.06;41.60
45441;BME280;31189;38.790;-77.084;2022-12-18T07:03:28;101076.12;;;6.81;41.39
45441;BME280;31189;38.790;-77.084;2022-12-18T07:05:56;101080.01;;;7.83;40.79
45441;BME280;31189;38.790;-77.084;2022-12-18T07:08:24;101081.30;;;7.70;41.66
45441;BME280;31189;38.790;-77.084;2022-12-18T07:10:52;101081.91;;;8.01;41.09
45441;BME280;31189;38.790;-77.084;2022-12-18T07:13:20;101079.78;;;7.95;41.81
45441;BME280;31189;38.790;-77.084;2022-12-18T07:15:48;101079.91;;;8.40;40.72
45441;BME280;31189;38.790;-77.084;2022-12-18T07:18:16;101080.20;;;8.55;39.87
45441;BME280;31189;38.790;-77.084;2022-12-18T07:20:43;101082.58;;;8.47;39.80
45441;BME280;31189;38.790;-77.084;2022-12-18T07:23:11;101085.74;;;6.71;41.39
45441;BME280;31189;38.790;-77.084;2022-12-18T07:25:39;101086.32;;;7.19;43.36
45441;BME280;31189;38.790;-77.084;2022-12-18T07:28:06;101089.34;;;8.43;40.69
45441;BME280;31189;38.790;-77.084;2022-12-18T07:30:37;101092.71;;;8.33;41.69
45441;BME280;31189;38.790;-77.084;2022-12-18T07:33:05;101093.79;;;7.85;42.10
45441;BME280;31189;38.790;-77.084;2022-12-18T07:35:34;101097.43;;;7.76;42.10
45441;BME280;31189;38.790;-77.084;2022-12-18T07:38:02;101103.87;;;7.76;41.27
45441;BME280;31189;38.790;-77.084;2022-12-18T07:40:31;101109.28;;;7.54;42.55
45441;BME280;31189;38.790;-77.084;2022-12-18T07:42:58;101120.62;;;7.14;44.34
45441;BME280;31189;38.790;-77.084;2022-12-18T07:45:27;101115.55;;;7.94;42.78
45441;BME280;31189;38.790;-77.084;2022-12-18T07:47:55;101110.47;;;8.36;42.72
45441;BME280;31189;38.790;-77.084;2022-12-18T07:50:23;101104.38;;;7.74;43.17
45441;BME280;31189;38.790;-77.084;2022-12-18T07:52:51;101102.24;;;7.63;43.14
45441;BME280;31189;38.790;-77.084;2022-12-18T07:55:19;101107.31;;;5.09;45.87
45441;BME280;31189;38.790;-77.084;2022-12-18T07:57:46;101099.41;;;7.47;43.22
45441;BME280;31189;38.790;-77.084;2022-12-18T08:00:15;101094.80;;;7.43;42.12
45441;BME280;31189;38.790;-77.084;2022-12-18T08:02:43;101091.13;;;7.06;42.20
45441;BME280;31189;38.790;-77.084;2022-12-18T08:05:10;101089.58;;;7.22;42.24
45441;BME280;31189;38.790;-77.084;2022-12-18T08:07:38;101089.34;;;8.29;41.55
45441;BME280;31189;38.790;-77.084;2022-12-18T08:10:07;101094.06;;;7.56;40.87
45441;BME280;31189;38.790;-77.084;2022-12-18T08:12:35;101101.50;;;5.89;46.19
45441;BME280;31189;38.790;-77.084;2022-12-18T08:15:05;101104.17;;;7.21;44.50
45441;BME280;31189;38.790;-77.084;2022-12-18T08:17:33;101107.60;;;7.96;43.44
45441;BME280;31189;38.790;-77.084;2022-12-18T08:20:02;101108.06;;;8.03;43.18
45441;BME280;31189;38.790;-77.084;2022-12-18T08:22:30;101106.75;;;7.38;43.92
45441;BME280;31189;38.790;-77.084;2022-12-18T08:24:58;101105.01;;;7.90;43.30
45441;BME280;31189;38.790;-77.084;2022-12-18T08:27:25;101099.12;;;8.11;42.37
45441;BME280;31189;38.790;-77.084;2022-12-18T08:29:52;101093.43;;;8.14;42.69
45441;BME280;31189;38.790;-77.084;2022-12-18T08:32:20;101091.72;;;8.41;41.35
45441;BME280;31189;38.790;-77.084;2022-12-18T08:34:48;101087.71;;;8.15;40.95
45441;BME280;31189;38.790;-77.084;2022-12-18T08:37:16;101087.35;;;8.51;40.38
45441;BME280;31189;38.790;-77.084;2022-12-18T08:39:44;101089.02;;;8.12;40.21
45441;BME280;31189;38.790;-77.084;2022-12-18T08:42:12;101087.35;;;8.09;40.21
45441;BME280;31189;38.790;-77.084;2022-12-18T08:44:40;101089.42;;;8.51;40.07
45441;BME280;31189;38.790;-77.084;2022-12-18T08:47:07;101082.05;;;7.96;40.57
45441;BME280;31189;38.790;-77.084;2022-12-18T08:49:35;101077.52;;;8.07;40.95
45441;BME280;31189;38.790;-77.084;2022-12-18T08:52:04;101071.94;;;7.90;41.43
45441;BME280;31189;38.790;-77.084;2022-12-18T08:54:32;101073.44;;;8.27;41.22
45441;BME280;31189;38.790;-77.084;2022-12-18T08:56:59;101075.86;;;7.69;40.90
45441;BME280;31189;38.790;-77.084;2022-12-18T08:59:27;101081.30;;;5.93;45.54
45441;BME280;31189;38.790;-77.084;2022-12-18T09:01:55;101080.61;;;7.18;44.13
45441;BME280;31189;38.790;-77.084;2022-12-18T09:04:23;101084.27;;;7.28;44.05
45441;BME280;31189;38.790;-77.084;2022-12-18T09:06:51;101081.58;;;8.16;42.96
45441;BME280;31189;38.790;-77.084;2022-12-18T09:09:19;101086.46;;;7.81;42.80
45441;BME280;31189;38.790;-77.084;2022-12-18T09:11:46;101086.60;;;7.86;42.34
45441;BME280;31189;38.790;-77.084;2022-12-18T09:14:15;101084.12;;;6.67;44.61
45441;BME280;31189;38.790;-77.084;2022-12-18T09:16:42;101084.06;;;7.92;43.83
45441;BME280;31189;38.790;-77.084;2022-12-18T09:19:10;101082.52;;;7.66;43.34
45441;BME280;31189;38.790;-77.084;2022-12-18T09:21:38;101080.52;;;7.91;41.95
45441;BME280;31189;38.790;-77.084;2022-12-18T09:24:08;101082.23;;;7.47;42.41
45441;BME280;31189;38.790;-77.084;2022-12-18T09:26:39;101080.91;;;7.48;42.50
45441;BME280;31189;38.790;-77.084;2022-12-18T09:29:07;101086.78;;;7.49;42.22
45441;BME280;31189;38.790;-77.084;2022-12-18T09:31:36;101092.44;;;7.76;41.53
45441;BME280;31189;38.790;-77.084;2022-12-18T09:34:04;101093.26;;;7.04;42.87
45441;BME280;31189;38.790;-77.084;2022-12-18T09:36:32;101093.97;;;6.80;43.92
45441;BME280;31189;38.790;-77.084;2022-12-18T09:38:59;101089.56;;;6.83;44.27
45441;BME280;31189;38.790;-77.084;2022-12-18T09:41:39;101092.05;;;7.88;43.99
45441;BME280;31189;38.790;-77.084;2022-12-18T09:44:16;101082.22;;;8.03;42.77
45441;BME280;31189;38.790;-77.084;2022-12-18T09:46:49;101075.47;;;8.39;42.65
45441;BME280;31189;38.790;-77.084;2022-12-18T09:49:21;101072.01;;;7.74;42.28
45441;BME280;31189;38.790;-77.084;2022-12-18T09:51:54;101087.04;;;6.43;45.31
45441;BME280;31189;38.790;-77.084;2022-12-18T09:54:29;101081.03;;;7.36;43.07
45441;BME280;31189;38.790;-77.084;2022-12-18T09:56:59;101091.81;;;6.97;43.49
45441;BME280;31189;38.790;-77.084;2022-12-18T09:59:32;101097.49;;;7.15;43.85
45441;BME280;31189;38.790;-77.084;2022-12-18T10:02:16;101103.43;;;6.82;45.03
45441;BME280;31189;38.790;-77.084;2022-12-18T10:04:50;101107.46;;;7.06;44.27
45441;BME280;31189;38.790;-77.084;2022-12-18T10:07:24;101107.35;;;6.86;44.19
45441;BME280;31189;38.790;-77.084;2022-12-18T10:10:03;101107.97;;;6.57;43.97
45441;BME280;31189;38.790;-77.084;2022-12-18T10:12:41;101102.96;;;5.92;43.06
45441;BME280;31189;38.790;-77.084;2022-12-18T10:15:15;101099.05;;;5.02;43.81
45441;BME280;31189;38.790;-77.084;2022-12-18T10:17:54;101094.20;;;6.20;43.35
45441;BME280;31189;38.790;-77.084;2022-12-18T10:20:32;101109.61;;;6.75;43.08
45441;BME280;31189;38.790;-77.084;2022-12-18T10:23:08;101102.38;;;6.67;43.99
45441;BME280;31189;38.790;-77.084;2022-12-18T10:25:55;101107.43;;;6.46;43.47
45441;BME280;31189;38.790;-77.084;2022-12-18T10:28:26;101112.36;;;6.74;42.60
45441;BME280;31189;38.790;-77.084;2022-12-18T10:30:54;101113.40;;;7.57;42.23
45441;BME280;31189;38.790;-77.084;2022-12-18T10:33:27;101115.95;;;7.46;42.48
45441;BME280;31189;38.790;-77.084;2022-12-18T10:35:56;101123.29;;;7.78;43.07
45441;BME280;31189;38.790;-77.084;2022-12-18T10:38:26;101132.31;;;7.96;43.94
45441;BME280;31189;38.790;-77.084;2022-12-18T10:40:55;101135.27;;;8.18;43.63
45441;BME280;31189;38.790;-77.084;2022-12-18T10:43:27;101133.51;;;7.84;43.40
45441;BME280;31189;38.790;-77.084;2022-12-18T10:46:03;101135.44;;;7.80;42.81
45441;BME280;31189;38.790;-77.084;2022-12-18T10:48:34;101142.98;;;7.47;41.55
45441;BME280;31189;38.790;-77.084;2022-12-18T10:51:04;101148.45;;;6.36;43.22
45441;BME280;31189;38.790;-77.084;2022-12-18T10:53:34;101151.03;;;6.32;42.61
45441;BME280;31189;38.790;-77.084;2022-12-18T10:56:05;101142.29;;;7.53;41.15
45441;BME280;31189;38.790;-77.084;2022-12-18T10:58:35;101139.67;;;8.28;40.44
45441;BME280;31189;38.790;-77.084;2022-12-18T11:01:06;101142.52;;;7.57;40.92
45441;BME280;31189;38.790;-77.084;2022-12-18T11:03:36;101146.72;;;7.50;40.72
45441;BME280;31189;38.790;-77.084;2022-12-18T11:06:08;101151.93;;;5.72;44.60
45441;BME280;31189;38.790;-77.084;2022-12-18T11:08:36;101152.19;;;6.98;43.10
45441;BME280;31189;38.790;-77.084;2022-12-18T11:11:18;101160.68;;;5.42;46.10
45441;BME280;31189;38.790;-77.084;2022-12-18T11:13:57;101158.89;;;5.45;43.71
45441;BME280;31189;38.790;-77.084;2022-12-18T11:16:26;101152.20;;;6.53;42.11
45441;BME280;31189;38.790;-77.084;2022-12-18T11:18:55;101160.26;;;6.54;42.12
45441;BME280;31189;38.790;-77.084;2022-12-18T11:21:39;101166.34;;;4.87;42.83
45441;BME280;31189;38.790;-77.084;2022-12-18T11:24:20;101167.33;;;5.10;43.94
45441;BME280;31189;38.790;-77.084;2022-12-18T11:26:49;101169.41;;;4.13;43.77
45441;BME280;31189;38.790;-77.084;2022-12-18T11:29:22;101173.47;;;4.77;43.69
45441;BME280;31189;38.790;-77.084;2022-12-18T11:31:51;101176.97;;;3.52;44.34
45441;BME280;31189;38.790;-77.084;2022-12-18T11:34:24;101183.08;;;3.97;43.21
45441;BME280;31189;38.790;-77.084;2022-12-18T11:36:55;101185.89;;;4.45;43.04
45441;BME280;31189;38.790;-77.084;2022-12-18T11:39:34;101191.22;;;3.27;44.16
45441;BME280;31189;38.790;-77.084;2022-12-18T11:42:09;101192.54;;;3.64;44.29
45441;BME280;31189;38.790;-77.084;2022-12-18T11:44:45;101198.49;;;4.16;43.40
45441;BME280;31189;38.790;-77.084;2022-12-18T11:47:20;101200.17;;;5.32;42.13
45441;BME280;31189;38.790;-77.084;2022-12-18T11:49:50;101202.52;;;4.52;41.99
45441;BME280;31189;38.790;-77.084;2022-12-18T11:52:21;101207.23;;;3.52;43.12
45441;BME280;31189;38.790;-77.084;2022-12-18T11:54:52;101219.13;;;3.66;43.25
45441;BME280;31189;38.790;-77.084;2022-12-18T11:57:30;101222.96;;;2.26;44.20
45441;BME280;31189;38.790;-77.084;2022-12-18T12:00:09;101228.71;;;2.16;47.51
45441;BME280;31189;38.790;-77.084;2022-12-18T12:02:52;101230.98;;;3.51;44.28
45441;BME280;31189;38.790;-77.084;2022-12-18T12:05:31;101236.06;;;2.24;45.51
45441;BME280;31189;38.790;-77.084;2022-12-18T12:08:09;101237.74;;;3.12;44.56
45441;BME280;31189;38.790;-77.084;2022-12-18T12:10:45;101239.55;;;0.81;45.21
45441;BME280;31189;38.790;-77.084;2022-12-18T12:13:25;101243.48;;;1.87;44.29
45441;BME280;31189;38.790;-77.084;2022-12-18T12:16:06;101244.39;;;2.67;42.78
45441;BME280;31189;38.790;-77.084;2022-12-18T12:18:48;101250.55;;;1.66;43.27
45441;BME280;31189;38.790;-77.084;2022-12-18T12:21:22;101252.15;;;3.54;41.28
45441;BME280;31189;38.790;-77.084;2022-12-18T12:23:59;101253.10;;;2.78;40.47
45441;BME280;31189;38.790;-77.084;2022-12-18T12:26:35;101253.96;;;2.40;40.35
45441;BME280;31189;38.790;-77.084;2022-12-18T12:29:18;101259.99;;;1.70;41.01
45441;BME280;31189;38.790;-77.084;2022-12-18T12:32:00;101264.83;;;3.64;40.46
45441;BME280;31189;38.790;-77.084;2022-12-18T12:34:36;101270.58;;;3.94;40.68
45441;BME280;31189;38.790;-77.084;2022-12-18T12:37:18;101269.22;;;2.25;39.53
45441;BME280;31189;38.790;-77.084;2022-12-18T12:39:51;101273.48;;;2.55;41.90
45441;BME280;31189;38.790;-77.084;2022-12-18T12:42:26;101273.71;;;3.59;41.40
45441;BME280;31189;38.790;-77.084;2022-12-18T12:44:59;101267.78;;;3.71;40.12
45441;BME280;31189;38.790;-77.084;2022-12-18T12:47:33;101270.56;;;3.48;40.60
45441;BME280;31189;38.790;-77.084;2022-12-18T12:50:06;101272.66;;;3.53;40.68
45441;BME280;31189;38.790;-77.084;2022-12-18T12:52:42;101270.29;;;2.33;40.95
45441;BME280;31189;38.790;-77.084;2022-12-18T12:55:17;101272.57;;;1.04;42.37
45441;BME280;31189;38.790;-77.084;2022-12-18T12:57:53;101273.42;;;1.20;43.91